Time;durP1;ratioP1;P1;durP2;ratioP2;P2;SDS_P1;SDS_P2;PMS_P1;PMS_P2;Temp;Humidity;BMP_temperature;BMP_pressure;BME280_temperature;BME280_humidity;BME280_pressure;Samples;Min_cycle;Max_cycle;Signal;HPM_P1;HPM_P2
2022/01/28 00:02:34;;;;;;;12.17;8.03;;;;;;;0.68;100.00;96636.00;5052636;28;20246;-79
2022/01/28 00:04:58;;;;;;;12.30;8.60;;;;;;;0.65;100.00;96638.69;5053761;28;20642;-79
2022/01/28 00:07:24;;;;;;;11.40;8.00;;;;;;;0.64;100.00;96629.38;5053698;28;20189;-79
2022/01/28 00:09:49;;;;;;;9.63;7.40;;;;;;;0.71;100.00;96640.19;5036546;28;20576;-80
2022/01/28 00:12:14;;;;;;;11.50;7.93;;;;;;;0.67;100.00;96638.63;5032803;28;20190;-80
2022/01/28 00:14:48;;;;;;;11.50;7.63;;;;;;;0.71;100.00;96648.69;5046195;28;20189;-80
2022/01/28 00:17:47;;;;;;;11.57;7.10;;;;;;;0.64;100.00;96654.94;5038331;28;20576;-80
2022/01/28 00:20:47;;;;;;;10.40;7.93;;;;;;;0.72;100.00;96658.03;5053023;28;20210;-80
2022/01/28 00:39:14;;;;;;;10.60;8.07;;;;;;;0.68;100.00;96668.41;5044972;28;20213;-78
2022/01/28 00:41:39;;;;;;;13.67;9.20;;;;;;;0.71;100.00;96671.69;5036935;28;20219;-78
2022/01/28 00:44:05;;;;;;;13.93;8.73;;;;;;;0.75;100.00;96686.00;5034972;28;20688;-79
2022/01/28 00:46:30;;;;;;;12.77;8.37;;;;;;;0.83;100.00;96678.03;5039018;28;20235;-79
2022/01/28 00:48:56;;;;;;;12.07;7.87;;;;;;;0.80;100.00;96673.88;5055953;28;20263;-78
2022/01/28 00:51:21;;;;;;;12.60;8.60;;;;;;;0.67;100.00;96685.47;5034945;28;20182;-79
2022/01/28 00:53:47;;;;;;;12.87;8.60;;;;;;;0.75;100.00;96683.47;5047146;28;20655;-78
2022/01/28 00:56:12;;;;;;;12.43;8.53;;;;;;;0.77;100.00;96684.22;5038023;28;20600;-80
2022/01/28 00:58:37;;;;;;;13.23;8.87;;;;;;;0.75;100.00;96683.47;5054131;28;20215;-78
2022/01/28 01:01:03;;;;;;;14.40;8.17;;;;;;;0.73;100.00;96682.69;5054510;28;20194;-80
2022/01/28 01:03:28;;;;;;;12.10;8.37;;;;;;;0.82;100.00;96707.06;5038427;28;20204;-80
2022/01/28 01:05:53;;;;;;;15.47;9.47;;;;;;;0.78;100.00;96697.84;5038044;28;20571;-79
2022/01/28 01:08:19;;;;;;;16.03;9.10;;;;;;;0.86;100.00;96700.94;5054919;28;20193;-78
2022/01/28 01:10:44;;;;;;;13.80;8.60;;;;;;;0.82;100.00;96694.28;5038037;28;20178;-79
2022/01/28 01:13:09;;;;;;;13.87;8.90;;;;;;;0.80;100.00;96696.06;5033468;28;20217;-78
2022/01/28 01:15:40;;;;;;;11.67;8.07;;;;;;;0.79;100.00;96695.22;5051229;28;20551;-79
2022/01/28 01:18:14;;;;;;;11.10;7.83;;;;;;;0.70;100.00;96693.03;5053680;28;20177;-79
2022/01/28 01:20:56;;;;;;;12.87;8.10;;;;;;;0.68;100.00;96697.38;5051663;28;20273;-80
2022/01/28 01:23:25;;;;;;;9.70;7.97;;;;;;;0.70;100.00;96712.63;5039438;28;20185;-79
2022/01/28 01:26:04;;;;;;;9.93;7.60;;;;;;;0.66;100.00;96714.50;5054652;28;20190;-79
2022/01/28 01:28:37;;;;;;;12.50;8.70;;;;;;;0.68;100.00;96714.44;5035278;28;20208;-79
2022/01/28 01:31:05;;;;;;;11.70;8.03;;;;;;;0.72;100.00;96721.94;5052116;28;20205;-81
2022/01/28 01:33:35;;;;;;;12.03;7.80;;;;;;;0.68;100.00;96720.38;5036742;28;20561;-80
2022/01/28 01:36:01;;;;;;;11.67;7.30;;;;;;;0.72;100.00;96724.50;5054385;28;20192;-79
2022/01/28 01:38:31;;;;;;;10.57;7.43;;;;;;;0.76;100.00;96722.63;5051772;28;20215;-79
2022/01/28 01:40:59;;;;;;;9.77;7.40;;;;;;;0.70;100.00;96721.13;5035714;28;20201;-79
2022/01/28 01:54:06;;;;;;;13.20;8.20;;;;;;;0.49;100.00;96739.88;5051902;28;20196;-79
2022/01/28 01:56:33;;;;;;;10.03;7.00;;;;;;;0.47;100.00;96746.75;5051631;28;20180;-79
2022/01/28 01:58:58;;;;;;;10.37;7.00;;;;;;;0.51;100.00;96738.06;5031636;28;20209;-78
2022/01/28 02:01:24;;;;;;;15.57;8.33;;;;;;;0.48;100.00;96745.88;5039896;28;20698;-79
2022/01/28 02:03:49;;;;;;;11.73;7.00;;;;;;;0.49;100.00;96752.63;5031217;28;20667;-81
2022/01/28 02:06:18;;;;;;;12.17;8.03;;;;;;;0.50;100.00;96750.03;5031173;28;20204;-79
2022/01/28 02:08:44;;;;;;;13.97;8.93;;;;;;;0.46;100.00;96745.94;5051316;28;20198;-79
2022/01/28 02:11:09;;;;;;;12.93;8.93;;;;;;;0.53;100.00;96749.06;5030828;28;20182;-79
2022/01/28 02:13:36;;;;;;;13.37;7.83;;;;;;;0.50;100.00;96759.41;5017629;28;20211;-79
2022/01/28 02:16:01;;;;;;;12.37;7.67;;;;;;;0.50;100.00;96754.31;5031463;28;20279;-79
2022/01/28 02:18:27;;;;;;;10.33;8.00;;;;;;;0.46;100.00;96756.16;5049261;28;20762;-78
2022/01/28 02:20:55;;;;;;;11.00;7.63;;;;;;;0.44;100.00;96767.28;5053641;28;20208;-79
2022/01/28 02:23:22;;;;;;;12.17;8.30;;;;;;;0.35;100.00;96765.09;5051756;28;20207;-79
2022/01/28 02:25:48;;;;;;;12.23;9.00;;;;;;;0.32;100.00;96760.91;5032201;28;20185;-79
2022/01/28 02:28:17;;;;;;;15.43;9.07;;;;;;;0.24;100.00;96762.91;5032152;28;20213;-79
2022/01/28 02:30:43;;;;;;;12.67;9.07;;;;;;;0.26;100.00;96761.97;5051703;28;20354;-80
2022/01/28 02:33:20;;;;;;;12.63;8.23;;;;;;;0.16;100.00;96755.53;5051755;28;20186;-79
2022/01/28 02:35:47;;;;;;;14.47;8.30;;;;;;;0.16;100.00;96762.34;5051524;28;20180;-80
2022/01/28 02:38:14;;;;;;;12.17;7.60;;;;;;;0.13;100.00;96770.97;5030994;28;20178;-80
2022/01/28 02:40:44;;;;;;;10.23;8.07;;;;;;;0.12;100.00;96765.91;5038961;28;20198;-79
2022/01/28 02:43:31;;;;;;;11.50;7.80;;;;;;;0.10;100.00;96767.72;5045795;28;20271;-80
2022/01/28 02:46:03;;;;;;;11.50;8.03;;;;;;;0.07;100.00;96773.72;5022258;28;20545;-79
2022/01/28 02:48:31;;;;;;;11.17;7.47;;;;;;;0.11;100.00;96785.53;5050706;28;20208;-80
2022/01/28 02:53:28;;;;;;;11.33;7.53;;;;;;;0.14;100.00;96784.56;5050123;28;20193;-79
2022/01/28 02:56:00;;;;;;;10.10;7.50;;;;;;;0.13;100.00;96781.19;5054304;28;20189;-79
2022/01/28 02:58:26;;;;;;;11.40;7.80;;;;;;;0.14;100.00;96782.03;5054026;28;20255;-79
2022/01/28 03:00:54;;;;;;;12.10;7.60;;;;;;;0.14;100.00;96784.56;5037416;28;20239;-79
2022/01/28 03:03:22;;;;;;;12.27;7.47;;;;;;;0.12;100.00;96782.09;5053050;28;20185;-79
2022/01/28 03:05:47;;;;;;;11.67;7.37;;;;;;;0.14;100.00;96787.97;5034263;28;20247;-79
2022/01/28 03:08:13;;;;;;;10.37;7.43;;;;;;;0.13;100.00;96780.34;5019557;28;20643;-80
2022/01/28 03:16:07;;;;;;;12.67;7.80;;;;;;;0.16;100.00;96805.78;5054187;28;20276;-78
2022/01/28 03:18:43;;;;;;;10.57;7.43;;;;;;;0.28;100.00;96816.41;5038337;28;20481;-79
2022/01/28 03:24:13;;;;;;;12.80;8.50;;;;;;;0.31;100.00;96810.38;5032884;28;20200;-79
2022/01/28 03:26:38;;;;;;;12.87;8.90;;;;;;;0.38;100.00;96816.94;5034896;28;20185;-79
2022/01/28 03:29:05;;;;;;;15.10;9.63;;;;;;;0.36;100.00;96816.16;5035920;28;20619;-79
2022/01/28 03:31:31;;;;;;;17.00;9.27;;;;;;;0.42;100.00;96813.34;5034963;28;20301;-77
2022/01/28 03:33:56;;;;;;;14.23;10.10;;;;;;;0.44;100.00;96798.81;5052321;28;20403;-79
2022/01/28 03:36:22;;;;;;;15.33;9.37;;;;;;;0.48;100.00;96808.03;5018738;28;20204;-80
2022/01/28 03:38:48;;;;;;;15.93;9.97;;;;;;;0.44;100.00;96806.50;5019174;28;20204;-78
2022/01/28 03:41:17;;;;;;;15.87;9.87;;;;;;;0.48;100.00;96818.25;5034588;28;20218;-79
2022/01/28 03:43:47;;;;;;;17.27;9.53;;;;;;;0.52;100.00;96814.69;5035622;28;20242;-78
2022/01/28 03:46:13;;;;;;;15.43;9.43;;;;;;;0.48;100.00;96823.38;5036008;28;20182;-78
2022/01/28 03:48:38;;;;;;;14.37;10.30;;;;;;;0.52;100.00;96822.34;5035412;28;20557;-80
2022/01/28 03:51:04;;;;;;;15.50;9.10;;;;;;;0.51;100.00;96832.66;5015555;28;20225;-79
2022/01/28 03:53:29;;;;;;;15.03;9.63;;;;;;;0.45;100.00;96835.44;5017489;28;20717;-78
2022/01/28 03:55:57;;;;;;;16.90;10.17;;;;;;;0.52;100.00;96844.53;5050578;28;20722;-78
2022/01/28 03:58:23;;;;;;;15.17;9.97;;;;;;;0.47;100.00;96851.53;5032891;28;20201;-79
2022/01/28 04:00:48;;;;;;;16.13;10.03;;;;;;;0.45;100.00;96848.22;5046223;28;20387;-79
2022/01/28 04:03:38;;;;;;;16.10;10.37;;;;;;;0.45;100.00;96856.72;5055449;28;20272;-79
2022/01/28 04:11:28;;;;;;;15.90;9.80;;;;;;;0.46;100.00;96845.59;5053525;28;20180;-78
2022/01/28 04:14:07;;;;;;;14.90;9.07;;;;;;;0.24;100.00;96835.28;5038915;28;20276;-79
2022/01/28 04:17:19;;;;;;;16.70;9.60;;;;;;;0.34;100.00;96842.63;5037777;28;20708;-79
2022/01/28 04:19:17;;;;;;;17.37;9.10;;;;;;;0.24;100.00;96837.84;5052674;28;20202;-79
2022/01/28 04:21:43;;;;;;;15.17;9.80;;;;;;;0.16;100.00;96847.50;5052263;28;20213;-79
2022/01/28 04:24:08;;;;;;;16.30;10.43;;;;;;;0.13;100.00;96846.78;5036260;28;20224;-81
2022/01/28 04:26:33;;;;;;;17.53;9.97;;;;;;;0.15;100.00;96848.38;5053252;28;20624;-81
2022/01/28 04:28:58;;;;;;;17.23;9.50;;;;;;;0.09;100.00;96856.28;5036447;28;20205;-81
2022/01/28 04:31:24;;;;;;;16.37;10.07;;;;;;;0.06;100.00;96856.34;5035933;28;20185;-80
2022/01/28 04:33:52;;;;;;;17.03;10.13;;;;;;;0.11;100.00;96867.25;5052591;28;20185;-79
2022/01/28 04:36:18;;;;;;;19.87;10.27;;;;;;;0.06;100.00;96868.28;5055485;28;20643;-79
2022/01/28 04:39:00;;;;;;;14.27;8.90;;;;;;;0.06;100.00;96866.56;5055938;28;20208;-80
2022/01/28 04:41:35;;;;;;;16.50;9.90;;;;;;;0.04;100.00;96868.34;5037784;28;20215;-80
2022/01/28 04:44:10;;;;;;;18.67;10.47;;;;;;;0.09;100.00;96871.59;5052846;28;20523;-80
2022/01/28 04:46:46;;;;;;;19.63;10.93;;;;;;;0.13;100.00;96885.09;5052920;28;20184;-79
2022/01/28 04:49:30;;;;;;;18.00;10.80;;;;;;;0.05;100.00;96885.34;5037564;28;20196;-79
2022/01/28 04:52:34;;;;;;;19.13;11.00;;;;;;;0.10;100.00;96887.75;5022139;28;20184;-79
2022/01/28 04:55:26;;;;;;;19.93;10.23;;;;;;;0.06;100.00;96894.66;5052211;28;20209;-79
2022/01/28 05:00:36;;;;;;;17.60;10.30;;;;;;;0.13;100.00;96902.97;5051768;28;20661;-78
2022/01/28 05:03:24;;;;;;;18.97;11.30;;;;;;;0.06;100.00;96902.31;5053598;28;20199;-78
2022/01/28 05:25:17;;;;;;;15.37;9.47;;;;;;;-0.22;100.00;96910.06;5051753;28;20200;-80
2022/01/28 05:27:42;;;;;;;19.27;10.20;;;;;;;-0.17;100.00;96898.00;5045987;28;20212;-80
2022/01/28 05:30:08;;;;;;;17.00;10.00;;;;;;;-0.19;100.00;96911.66;5015534;28;20606;-77
2022/01/28 05:32:34;;;;;;;16.30;9.57;;;;;;;-0.18;100.00;96903.94;5040301;28;20189;-78
2022/01/28 05:35:00;;;;;;;16.17;10.23;;;;;;;-0.18;100.00;96910.78;5036389;28;20255;-77
2022/01/28 05:37:25;;;;;;;16.67;9.40;;;;;;;-0.25;100.00;96915.28;5055867;28;20223;-79
2022/01/28 05:39:50;;;;;;;18.17;9.47;;;;;;;-0.30;100.00;96910.28;5052458;28;20609;-78
2022/01/28 05:42:16;;;;;;;19.97;9.63;;;;;;;-0.30;100.00;96915.41;5051453;28;20685;-80
2022/01/28 05:44:41;;;;;;;15.97;9.83;;;;;;;-0.23;100.00;96920.31;5051566;28;20295;-79
2022/01/28 05:47:06;;;;;;;17.27;9.60;;;;;;;-0.25;100.00;96919.53;5051090;28;20201;-79
2022/01/28 05:49:32;;;;;;;17.90;9.77;;;;;;;-0.40;100.00;96931.88;5051148;28;20635;-79
2022/01/28 05:51:57;;;;;;;17.67;10.63;;;;;;;-0.38;100.00;96925.00;5050493;28;20187;-79
2022/01/28 05:54:22;;;;;;;17.27;10.80;;;;;;;-0.32;100.00;96937.59;5027049;28;20186;-80
2022/01/28 05:56:48;;;;;;;19.33;10.80;;;;;;;-0.36;100.00;96930.91;5050427;28;20275;-79
2022/01/28 05:59:13;;;;;;;24.47;14.00;;;;;;;-0.31;100.00;96940.97;5028110;28;20287;-79
2022/01/28 06:01:39;;;;;;;24.70;12.27;;;;;;;-0.36;100.00;96947.94;5029406;28;20229;-79
2022/01/28 06:04:04;;;;;;;19.00;12.17;;;;;;;-0.32;100.00;96949.53;5030504;28;20209;-78
2022/01/28 06:06:30;;;;;;;18.33;11.10;;;;;;;-0.28;100.00;96962.13;5034105;28;20355;-80
2022/01/28 06:08:56;;;;;;;17.13;9.60;;;;;;;-0.18;100.00;96967.78;5050426;28;20207;-78
2022/01/28 06:11:23;;;;;;;15.70;10.23;;;;;;;-0.09;100.00;96964.09;5051185;28;20268;-80
2022/01/28 06:13:48;;;;;;;18.70;12.40;;;;;;;-0.08;100.00;96974.31;5031550;28;20202;-78
2022/01/28 06:16:15;;;;;;;24.33;12.13;;;;;;;-0.02;100.00;96988.56;5027485;28;20180;-77
2022/01/28 06:18:41;;;;;;;21.67;12.17;;;;;;;0.02;100.00;97002.09;5029410;28;20197;-79
2022/01/28 06:21:06;;;;;;;20.30;12.23;;;;;;;0.01;100.00;96996.16;5050346;28;20201;-79
2022/01/28 06:23:32;;;;;;;23.13;13.27;;;;;;;0.03;100.00;96994.38;5034413;28;20184;-77
2022/01/28 06:25:57;;;;;;;23.23;13.63;;;;;;;0.08;100.00;96992.50;5031394;28;20560;-79
2022/01/28 06:28:23;;;;;;;25.50;15.10;;;;;;;0.07;100.00;96982.34;5026175;28;20221;-78
2022/01/28 06:30:48;;;;;;;24.57;13.70;;;;;;;0.07;100.00;96992.56;5054290;28;20173;-80
2022/01/28 06:33:14;;;;;;;27.50;14.90;;;;;;;0.05;100.00;97007.09;5037303;28;20650;-77
2022/01/28 06:35:40;;;;;;;23.37;13.57;;;;;;;0.02;100.00;97023.38;5050181;28;20758;-80
2022/01/28 06:38:05;;;;;;;28.13;14.80;;;;;;;-0.01;100.00;97018.34;5051652;28;20252;-80
2022/01/28 06:40:31;;;;;;;25.87;13.77;;;;;;;-0.07;100.00;97018.53;5053755;28;20284;-77
2022/01/28 06:42:56;;;;;;;23.30;13.07;;;;;;;0.02;100.00;97023.38;5021059;28;20197;-77
2022/01/28 06:45:21;;;;;;;22.60;13.03;;;;;;;0.11;100.00;97033.31;5068373;28;20224;-79
2022/01/28 06:47:47;;;;;;;23.30;12.47;;;;;;;0.03;100.00;97024.19;5054345;28;20252;-78
2022/01/28 06:50:12;;;;;;;22.03;12.00;;;;;;;0.07;100.00;97018.94;5054113;28;20569;-79
2022/01/28 06:52:38;;;;;;;20.13;12.00;;;;;;;0.09;100.00;97018.88;5052958;28;20185;-80
2022/01/28 06:55:05;;;;;;;22.53;12.27;;;;;;;0.02;100.00;97027.66;5037307;28;20295;-79
2022/01/28 06:57:30;;;;;;;20.73;12.30;;;;;;;0.08;100.00;97042.75;5038392;28;20946;-79
2022/01/28 06:59:56;;;;;;;24.20;11.87;;;;;;;0.09;100.00;97050.41;5038283;28;20303;-79
2022/01/28 07:02:22;;;;;;;20.10;12.97;;;;;;;0.10;100.00;97049.50;5053653;28;20205;-80
2022/01/28 07:04:47;;;;;;;25.63;12.53;;;;;;;0.08;100.00;97058.91;5034513;28;20293;-81
2022/01/28 07:07:12;;;;;;;21.30;11.90;;;;;;;0.09;100.00;97057.19;5037716;28;20183;-80
2022/01/28 07:09:38;;;;;;;24.43;13.30;;;;;;;0.03;100.00;97053.13;5055022;28;20232;-78
2022/01/28 07:12:04;;;;;;;22.53;12.80;;;;;;;0.16;100.00;97048.47;5039815;28;20178;-80
2022/01/28 07:14:29;;;;;;;25.67;13.60;;;;;;;0.07;100.00;97043.66;5060605;28;20246;-83
2022/01/28 07:16:54;;;;;;;24.47;14.77;;;;;;;0.07;100.00;97041.09;5035629;28;20236;-86
2022/01/28 07:19:19;;;;;;;21.67;13.20;;;;;;;0.11;100.00;97048.63;5047941;28;20201;-80
2022/01/28 07:21:45;;;;;;;25.30;14.97;;;;;;;0.18;100.00;97047.56;5037715;28;20209;-80
2022/01/28 07:24:10;;;;;;;19.33;12.50;;;;;;;0.19;100.00;97054.34;5045293;28;20759;-80
2022/01/28 07:26:38;;;;;;;20.73;12.07;;;;;;;0.19;100.00;97062.00;5048652;28;20291;-82
2022/01/28 07:29:03;;;;;;;17.43;11.10;;;;;;;0.19;100.00;97063.72;5030746;28;20229;-82
2022/01/28 07:31:29;;;;;;;18.73;11.73;;;;;;;0.23;100.00;97068.66;5032979;28;20286;-82
2022/01/28 07:33:54;;;;;;;22.70;14.93;;;;;;;0.22;100.00;97064.44;5051616;28;20189;-82
2022/01/28 07:36:20;;;;;;;20.77;11.43;;;;;;;0.30;100.00;97083.81;5051742;28;20196;-81
2022/01/28 07:38:45;;;;;;;20.63;12.00;;;;;;;0.34;100.00;97076.00;5051381;28;20233;-82
2022/01/28 07:41:10;;;;;;;20.13;10.77;;;;;;;0.24;100.00;97070.34;5033466;28;20201;-81
2022/01/28 07:43:38;;;;;;;17.17;10.37;;;;;;;0.34;100.00;97087.94;5036927;28;20185;-82
2022/01/28 07:46:04;;;;;;;14.27;9.10;;;;;;;0.39;97.90;97075.88;5053890;28;20648;-80
2022/01/28 07:48:32;;;;;;;14.50;8.97;;;;;;;0.47;97.50;97076.47;5040088;28;20336;-79
2022/01/28 07:50:58;;;;;;;16.70;10.67;;;;;;;0.50;96.88;97072.06;5039992;28;20193;-80
2022/01/28 07:53:23;;;;;;;12.50;7.73;;;;;;;0.48;96.84;97057.69;5038083;28;20182;-81
2022/01/28 07:55:48;;;;;;;13.57;8.70;;;;;;;0.51;96.36;97058.41;5055205;28;20200;-81
2022/01/28 07:58:14;;;;;;;12.33;8.30;;;;;;;0.50;96.52;97066.13;5054595;28;20185;-80
2022/01/28 08:00:39;;;;;;;16.00;8.87;;;;;;;0.50;95.76;97077.19;5056873;28;20678;-80
2022/01/28 08:03:05;;;;;;;14.07;7.23;;;;;;;0.55;95.64;97084.72;5036377;28;20216;-80
2022/01/28 08:05:30;;;;;;;11.13;6.83;;;;;;;0.49;95.60;97077.25;5035088;28;20186;-81
2022/01/28 08:07:55;;;;;;;11.27;6.90;;;;;;;0.50;95.65;97072.06;5026211;28;20181;-83
2022/01/28 08:10:21;;;;;;;10.63;6.87;;;;;;;0.65;95.47;97090.38;5054013;28;20205;-81
2022/01/28 08:12:47;;;;;;;11.87;6.30;;;;;;;0.79;94.72;97088.19;5032519;28;20202;-79
2022/01/28 08:15:13;;;;;;;10.77;6.10;;;;;;;0.96;94.18;97095.31;5031116;28;20185;-80
2022/01/28 08:17:38;;;;;;;12.77;6.70;;;;;;;1.01;93.04;97094.28;5055446;28;20319;-79
2022/01/28 08:20:04;;;;;;;13.13;7.27;;;;;;;1.10;92.72;97108.47;5033220;28;20285;-79
2022/01/28 08:22:30;;;;;;;10.77;5.57;;;;;;;1.10;92.77;97111.03;5047960;28;20213;-78
2022/01/28 08:24:55;;;;;;;14.47;6.73;;;;;;;0.98;93.63;97125.09;5036506;28;20185;-80
2022/01/28 08:27:20;;;;;;;13.43;7.13;;;;;;;1.19;93.25;97122.69;5033530;28;20581;-79
2022/01/28 08:29:46;;;;;;;10.70;6.47;;;;;;;1.21;92.77;97110.66;5050667;28;20214;-80
2022/01/28 08:32:11;;;;;;;10.70;6.20;;;;;;;1.16;93.17;97118.50;5036127;28;20197;-79
2022/01/28 08:34:36;;;;;;;13.33;6.67;;;;;;;1.22;92.73;97113.16;5036437;28;20181;-80
2022/01/28 08:37:04;;;;;;;12.07;7.10;;;;;;;1.27;93.34;97130.94;5053596;28;20279;-80
2022/01/28 08:39:30;;;;;;;11.50;7.10;;;;;;;1.28;93.23;97124.94;5055028;28;20262;-82
2022/01/28 08:41:55;;;;;;;12.93;6.70;;;;;;;1.30;93.11;97139.34;5053381;28;20289;-79
2022/01/28 08:44:21;;;;;;;13.23;6.87;;;;;;;1.29;93.34;97140.22;5036240;28;20192;-78
2022/01/28 08:46:46;;;;;;;12.93;6.43;;;;;;;1.30;93.40;97141.06;5034833;28;20202;-80
2022/01/28 08:49:11;;;;;;;15.10;6.87;;;;;;;1.47;92.63;97140.47;5052751;28;20214;-79
2022/01/28 08:51:37;;;;;;;11.07;7.17;;;;;;;1.50;91.46;97140.38;5051684;28;20599;-78
2022/01/28 08:54:02;;;;;;;13.20;6.90;;;;;;;1.54;91.52;97149.63;5052179;28;20194;-80
2022/01/28 08:56:27;;;;;;;15.27;6.13;;;;;;;1.58;90.73;97146.06;5053852;28;20196;-79
2022/01/28 08:58:52;;;;;;;13.27;6.77;;;;;;;1.74;89.85;97143.78;5052432;28;20213;-79
2022/01/28 09:01:18;;;;;;;14.37;6.17;;;;;;;1.87;89.08;97150.16;5035178;28;20227;-81
2022/01/28 09:03:44;;;;;;;12.97;7.20;;;;;;;1.97;88.87;97157.44;5052437;28;20267;-80
2022/01/28 09:06:09;;;;;;;11.43;5.43;;;;;;;2.02;86.90;97148.75;5034964;28;20182;-79
2022/01/28 09:08:35;;;;;;;11.83;5.77;;;;;;;2.17;86.70;97150.75;5051862;28;20258;-79
2022/01/28 09:11:29;;;;;;;15.53;6.10;;;;;;;2.30;86.58;97154.53;5035470;28;20189;-79
2022/01/28 09:13:45;;;;;;;9.23;5.37;;;;;;;2.27;86.09;97152.06;5052547;28;20196;-78
2022/01/28 09:16:11;;;;;;;9.73;6.00;;;;;;;2.25;85.91;97149.56;5034309;28;20190;-77
2022/01/28 09:18:36;;;;;;;11.73;5.60;;;;;;;2.35;85.87;97149.22;5034243;28;20194;-80
2022/01/28 09:21:01;;;;;;;9.03;5.60;;;;;;;2.36;85.65;97145.75;5033242;28;20213;-80
2022/01/28 09:23:27;;;;;;;11.00;6.23;;;;;;;2.46;86.11;97155.59;5050897;28;20663;-77
2022/01/28 09:25:52;;;;;;;12.83;5.70;;;;;;;2.43;85.12;97142.91;5052072;28;20650;-79
2022/01/28 09:28:17;;;;;;;9.70;5.10;;;;;;;2.45;85.38;97150.53;5034747;28;20277;-79
2022/01/28 09:30:43;;;;;;;10.43;5.70;;;;;;;2.41;83.88;97149.00;5034740;28;20213;-78
2022/01/28 09:33:08;;;;;;;8.50;5.13;;;;;;;2.34;84.14;97145.81;5051232;28;20544;-78
2022/01/28 09:35:34;;;;;;;8.53;5.37;;;;;;;2.58;84.10;97154.31;5050082;28;20181;-78
2022/01/28 09:38:00;;;;;;;8.77;4.80;;;;;;;2.70;83.23;97152.97;5050447;28;20185;-78
2022/01/28 09:40:25;;;;;;;9.83;4.40;;;;;;;2.94;81.58;97159.72;5051081;28;20206;-80
2022/01/28 09:42:54;;;;;;;13.30;6.20;;;;;;;2.86;81.18;97158.34;5050740;28;20182;-82
2022/01/28 09:45:22;;;;;;;11.50;6.17;;;;;;;2.92;81.11;97161.50;5045188;28;20203;-82
2022/01/28 09:47:51;;;;;;;11.60;5.20;;;;;;;2.88;80.69;97159.94;5045899;28;20197;-79
2022/01/28 09:50:17;;;;;;;10.83;5.03;;;;;;;2.73;79.99;97160.56;5030526;28;20213;-78
2022/01/28 09:52:42;;;;;;;9.47;4.53;;;;;;;2.78;78.98;97163.78;5030815;28;20194;-79
2022/01/28 09:55:08;;;;;;;7.47;4.53;;;;;;;2.91;79.43;97175.22;5050491;28;20214;-79
2022/01/28 09:57:33;;;;;;;9.23;5.00;;;;;;;3.16;79.59;97175.06;5052834;28;20251;-80
2022/01/28 09:59:58;;;;;;;7.93;4.60;;;;;;;3.21;78.27;97180.84;5034728;28;20200;-81
2022/01/28 10:02:50;;;;;;;8.33;3.90;;;;;;;3.26;78.53;97175.53;5050611;28;20206;-80
2022/01/28 10:05:36;;;;;;;7.80;4.10;;;;;;;3.40;77.74;97179.19;5034141;28;20186;-79
2022/01/28 10:08:19;;;;;;;6.20;3.77;;;;;;;3.37;76.37;97183.63;5031504;28;20654;-79
2022/01/28 10:10:54;;;;;;;7.20;4.20;;;;;;;3.42;77.92;97189.41;5047551;28;20621;-80
2022/01/28 10:16:11;;;;;;;8.73;4.30;;;;;;;3.30;77.39;97197.63;5051651;28;20639;-81
2022/01/28 10:18:44;;;;;;;8.77;4.10;;;;;;;3.47;76.74;97196.94;5050615;28;20555;-82
2022/01/28 10:21:32;;;;;;;7.53;4.10;;;;;;;3.39;77.12;97204.94;5030304;28;20206;-80
2022/01/28 10:24:06;;;;;;;8.67;4.53;;;;;;;3.51;78.06;97201.84;5039747;28;20651;-78
2022/01/28 10:26:40;;;;;;;8.57;4.10;;;;;;;3.71;77.97;97188.19;5052350;28;20190;-78
2022/01/28 10:29:08;;;;;;;9.93;5.67;;;;;;;3.66;78.56;97184.97;5050980;28;20212;-79
2022/01/28 10:31:35;;;;;;;9.40;5.33;;;;;;;3.59;79.15;97184.38;5050193;28;20224;-78
2022/01/28 10:34:24;;;;;;;8.83;5.17;;;;;;;3.30;79.58;97189.91;5026003;28;20180;-78
2022/01/28 10:36:51;;;;;;;9.87;5.07;;;;;;;3.20;79.74;97186.91;5047874;28;20202;-78
2022/01/28 10:39:20;;;;;;;7.37;4.87;;;;;;;3.31;79.00;97189.00;5050792;28;20283;-80
2022/01/28 10:41:56;;;;;;;9.60;4.57;;;;;;;3.19;78.59;97171.56;5050347;28;20206;-80
2022/01/28 10:44:23;;;;;;;6.77;4.13;;;;;;;3.12;78.26;97174.38;5035876;28;20272;-77
2022/01/28 10:46:54;;;;;;;9.73;5.30;;;;;;;3.23;77.91;97166.22;5051005;28;20718;-78
2022/01/28 10:49:26;;;;;;;7.37;4.30;;;;;;;3.13;77.89;97168.34;5034638;28;20247;-77
2022/01/28 10:51:51;;;;;;;12.90;4.93;;;;;;;3.28;77.72;97164.31;5033571;28;20174;-79
2022/01/28 10:54:20;;;;;;;8.23;4.60;;;;;;;3.36;77.36;97171.69;5052724;28;20655;-77
2022/01/28 10:56:56;;;;;;;10.30;5.00;;;;;;;3.56;77.10;97163.16;5035634;28;20251;-80
2022/01/28 10:59:26;;;;;;;11.30;4.10;;;;;;;3.76;76.85;97164.84;5050421;28;20714;-80
2022/01/28 11:01:51;;;;;;;8.20;4.37;;;;;;;3.65;75.95;97171.28;5033097;28;20210;-79
2022/01/28 11:04:18;;;;;;;9.77;4.77;;;;;;;3.68;76.38;97178.03;5060717;28;20255;-78
2022/01/28 11:06:44;;;;;;;6.97;4.10;;;;;;;3.66;75.87;97172.13;5042165;28;20182;-80
2022/01/28 11:09:11;;;;;;;7.53;4.17;;;;;;;3.54;76.40;97176.06;5053142;28;20206;-80
2022/01/28 11:11:37;;;;;;;6.97;3.50;;;;;;;3.65;76.74;97173.88;5032960;28;20185;-79
2022/01/28 11:14:04;;;;;;;6.80;3.67;;;;;;;3.53;75.71;97174.38;5049718;28;20186;-79
2022/01/28 11:16:29;;;;;;;12.93;5.63;;;;;;;3.56;77.04;97181.97;5036135;28;20182;-80
2022/01/28 11:18:56;;;;;;;10.73;4.23;;;;;;;3.58;76.98;97167.31;5054777;28;20555;-79
2022/01/28 11:21:49;;;;;;;6.60;4.40;;;;;;;3.78;76.35;97168.19;5053757;28;20210;-79
2022/01/28 11:24:45;;;;;;;11.03;4.80;;;;;;;4.05;75.87;97182.38;5061896;28;20289;-79
2022/01/28 11:27:14;;;;;;;7.27;5.17;;;;;;;3.61;76.49;97184.31;5055196;28;20721;-79
2022/01/28 11:29:39;;;;;;;8.07;5.93;;;;;;;3.65;76.98;97170.47;5053122;28;20290;-79
2022/01/28 11:32:17;;;;;;;11.53;4.87;;;;;;;3.77;76.81;97179.38;5033046;28;20175;-80
2022/01/28 11:34:59;;;;;;;11.10;5.50;;;;;;;3.46;76.79;97178.13;5052598;28;20181;-78
2022/01/28 11:37:30;;;;;;;6.63;3.87;;;;;;;3.47;75.91;97182.34;5021265;28;20263;-79
2022/01/28 11:40:06;;;;;;;7.47;4.13;;;;;;;3.60;75.67;97170.66;5053168;28;20220;-80
2022/01/28 11:42:31;;;;;;;8.73;4.10;;;;;;;3.77;75.16;97177.63;5052714;28;20213;-79
2022/01/28 11:44:59;;;;;;;10.93;4.73;;;;;;;3.44;75.76;97177.31;5036581;28;20185;-79
2022/01/28 11:47:28;;;;;;;8.20;4.03;;;;;;;3.57;75.79;97159.69;5041028;28;20226;-78
2022/01/28 11:50:10;;;;;;;8.30;4.40;;;;;;;3.34;75.86;97176.88;5049230;28;20224;-79
2022/01/28 11:52:44;;;;;;;8.93;4.30;;;;;;;3.17;75.76;97175.91;5050101;28;20178;-80
2022/01/28 11:55:23;;;;;;;9.77;4.37;;;;;;;3.00;77.54;97176.56;5045043;28;20209;-79
2022/01/28 11:58:13;;;;;;;12.63;5.10;;;;;;;3.22;77.85;97168.84;5056200;28;20248;-79
2022/01/28 12:01:34;;;;;;;9.83;5.23;;;;;;;3.22;78.84;97154.28;5037864;28;20218;-79
2022/01/28 12:04:55;;;;;;;;;;;;;;;;;;;;;
2022/01/28 12:07:22;;;;;;;8.87;4.57;;;;;;;3.21;78.58;97168.03;5051555;28;20214;-79
2022/01/28 12:09:49;;;;;;;9.00;5.53;;;;;;;3.39;78.86;97164.69;5034769;28;20321;-80
2022/01/28 12:12:20;;;;;;;10.43;5.23;;;;;;;3.48;79.52;97163.47;5033214;28;20246;-80
2022/01/28 12:14:53;;;;;;;8.77;5.47;;;;;;;3.48;79.18;97154.94;5034798;28;20706;-80
2022/01/28 12:17:35;;;;;;;10.17;5.90;;;;;;;3.48;79.83;97157.50;5051852;28;20191;-81
2022/01/28 12:20:21;;;;;;;12.73;6.20;;;;;;;3.43;80.68;97147.41;5051447;28;20210;-80
2022/01/28 12:23:08;;;;;;;10.03;6.27;;;;;;;3.15;80.82;97150.28;5045613;28;20630;-80
2022/01/28 12:25:36;;;;;;;11.47;7.70;;;;;;;3.34;81.09;97143.50;5032094;28;20207;-79
2022/01/28 12:28:26;;;;;;;12.63;7.80;;;;;;;3.31;81.86;97148.75;5014341;28;20204;-77
2022/01/28 12:31:07;;;;;;;11.40;7.80;;;;;;;3.17;82.75;97134.81;5041455;28;20193;-78
2022/01/28 12:33:39;;;;;;;11.43;7.50;;;;;;;3.31;82.48;97145.38;5031241;28;20792;-80
2022/01/28 12:36:09;;;;;;;13.83;7.80;;;;;;;3.10;83.48;97144.53;5033117;28;20192;-79
2022/01/28 12:38:42;;;;;;;14.00;7.60;;;;;;;3.27;83.07;97151.50;5033889;28;20210;-80
2022/01/28 12:41:09;;;;;;;11.53;7.77;;;;;;;2.91;84.90;97149.56;5016657;28;20222;-79
2022/01/28 12:43:36;;;;;;;13.73;9.10;;;;;;;2.89;85.38;97151.34;5052535;28;20177;-79
2022/01/28 12:46:09;;;;;;;15.37;9.53;;;;;;;2.68;86.59;97147.91;5051595;28;20193;-79
2022/01/28 12:48:34;;;;;;;15.13;9.17;;;;;;;2.60;86.74;97138.84;5036242;28;20233;-79